Station: Manjimup  

  Atmospheric Gas Attenuation - ITU Rec 676-11   ----------------- dB/100km -----------------
Date Time Temp RH % AH g/m3 Dew Point Wind Direction Speed kph Gust kph Barometer mB Rainfall Since 9am 24GHz 47GHz 76GHz 122GHz 134GHz 241GHz
08/05 09:30 13 85 9.64 10.5 9 17 1032.4 0 21.8 28.6 45.4 119.2 115.3 397.4
08/05 09:20 12.1 87 9.33 10 6 7 1032.5 0 21.2 28.4 44.6 117.0 112.3 386.8
08/05 09:10 11.7 89 9.31 9.9 6 7 1032.6 0 21.2 28.5 44.8 117.4 112.6 387.8
08/05 09:00 11 90 9.01 9.4 7 17 1032.5 0 20.6 28.2 43.9 115.0 109.4 376.4
08/05 08:50 10.5 91 8.83 9.1 6 7 1032.6 0.2 20.2 28.0 43.4 113.7 107.6 370.0
08/05 08:40 10.1 93 8.8 9 7 9 1032.6 0.2 20.2 28.1 43.5 113.9 107.7 370.4
08/05 08:30 9.8 95 8.82 9 7 11 1032.6 0.2 20.2 28.2 43.7 114.6 108.4 372.8
08/05 08:20 9.3 96 8.63 8.7 9 11 1032.6 0.2 19.9 28.1 43.2 113.1 106.4 365.7
08/05 08:10 8.7 97 8.39 8.3 7 11 1032.6 0.2 19.4 27.8 42.5 111.2 103.8 356.5
08/05 08:00 8.3 98 8.26 8 6 9 1032.5 0.2 19.1 27.7 42.1 110.3 102.5 351.9
08/05 07:50 8.1 98 8.16 7.8 6 6 1032.4 0.2 18.9 27.6 41.8 109.4 101.3 347.7
08/05 07:40 7.9 99 8.14 7.8 4 7 1032.3 0.2 18.9 27.6 41.8 109.4 101.3 347.6
08/05 07:30 7.7 98 7.95 7.4 7 13 1032.2 0.2 18.5 27.4 41.1 107.5 98.9 339.0
08/05 07:20 7.7 98 7.95 7.4 6 7 1032.2 0.2 18.5 27.4 41.1 107.5 98.9 339.0
08/05 07:10 7.7 98 7.95 7.4 9 11 1032.1 0.2 18.5 27.4 41.1 107.5 98.8 339.0
08/05 07:00 7.5 97 7.77 7.1 9 13 1032 0.2 18.1 27.1 40.4 105.7 96.5 330.9
08/05 06:50 7.8 96 7.84 7.2 9 11 1032.1 0.2 18.2 27.1 40.6 106.1 97.2 333.1
08/05 06:40 8 96 7.94 7.4 7 11 1032.1 0.2 18.4 27.3 40.9 107.0 98.3 337.2
08/05 06:30 8.3 96 8.09 7.7 9 15 1032 0.2 18.7 27.4 41.4 108.3 100.0 343.3
08/05 06:20 8.5 97 8.28 8.1 9 15 1032.1 0.2 19.1 27.7 42.1 110.2 102.5 351.8
08/05 06:10 8.3 98 8.26 8 7 9 1032.2 0.2 19.1 27.7 42.1 110.2 102.5 351.8
08/05 06:00 8.1 97 8.07 7.7 7 11 1032 0.2 18.7 27.4 41.4 108.3 100.0 343.2
08/05 05:50 8.1 97 8.07 7.7 11 17 1032.1 0.2 18.7 27.5 41.4 108.3 100.0 343.2
08/05 05:40 8.4 98 8.32 8.1 7 9 1032.1 0.2 19.2 27.8 42.3 110.8 103.2 354.3
08/05 05:30 8.2 97 8.13 7.8 7 11 1031.9 0.2 18.8 27.5 41.6 108.9 100.7 345.7
08/05 05:20 8.3 97 8.18 7.9 7 9 1031.9 0.2 18.9 27.6 41.7 109.3 101.3 347.7
08/05 05:10 8.4 96 8.15 7.8 7 9 1031.8 0.2 18.9 27.5 41.6 108.8 100.7 345.7
08/05 05:00 8.8 97 8.45 8.4 7 11 1031.7 0.2 19.5 27.9 42.6 111.7 104.5 358.8
08/05 04:50 8.7 97 8.39 8.3 6 7 1031.7 0.2 19.4 27.8 42.4 111.1 103.7 356.3
08/05 04:40 8.8 98 8.53 8.5 9 13 1031.7 0.2 19.7 28.0 43.0 112.6 105.6 362.8
08/05 04:30 8.6 98 8.42 8.3 9 11 1031.7 0.2 19.4 27.9 42.6 111.6 104.3 358.2
08/05 04:20 8.6 98 8.42 8.3 9 11 1031.7 0.2 19.4 27.9 42.6 111.6 104.3 358.2
08/05 04:10 8.6 98 8.42 8.3 6 7 1031.6 0.2 19.4 27.9 42.6 111.6 104.3 358.2
08/05 04:00 8.6 97 8.34 8.2 7 13 1031.5 0.2 19.3 27.7 42.3 110.7 103.2 354.2
08/05 03:50 8.7 97 8.39 8.3 7 9 1031.5 0.2 19.4 27.8 42.4 111.1 103.7 356.2
08/05 03:40 8.8 97 8.45 8.4 7 9 1031.4 0.2 19.5 27.9 42.6 111.6 104.4 358.7
08/05 03:30 8.7 96 8.31 8.1 7 11 1031.3 0.2 19.2 27.6 42.1 110.2 102.6 352.2
08/05 03:20 9 96 8.47 8.4 7 9 1031.5 0.2 19.5 27.8 42.6 111.6 104.5 358.8
08/05 03:10 9 96 8.47 8.4 6 7 1031.4 0.2 19.5 27.8 42.6 111.6 104.5 358.8
08/05 03:00 9 96 8.47 8.4 9 15 1031.3 0.2 19.5 27.8 42.6 111.6 104.4 358.8
08/05 02:50 9.1 96 8.52 8.5 9 11 1031.5 0.2 19.6 27.9 42.8 112.0 105.0 360.9
08/05 02:40 9.2 95 8.49 8.4 9 15 1031.5 0.2 19.6 27.8 42.6 111.5 104.5 358.9
08/05 02:30 9.3 95 8.54 8.5 9 15 1031.4 0.2 19.7 27.9 42.7 112.0 105.0 360.9
08/05 02:20 9.4 95 8.59 8.6 13 15 1031.5 0.2 19.8 27.9 42.9 112.4 105.6 362.9
08/05 02:10 9.5 94 8.56 8.6 11 13 1031.4 0.2 19.7 27.8 42.7 111.9 105.0 360.9
08/05 02:00 9.5 93 8.47 8.4 9 13 1031.4 0.2 19.5 27.7 42.3 110.9 103.8 356.5
08/05 01:50 9.7 93 8.58 8.6 7 7 1031.5 0.2 19.7 27.8 42.7 111.9 105.1 361.0
08/05 01:40 9.7 91 8.39 8.3 9 13 1031.5 0.2 19.3 27.5 41.9 109.7 102.4 351.7
08/05 01:30 9.9 90 8.41 8.3 9 15 1031.4 0.2 19.4 27.4 41.9 109.6 102.4 351.7
08/05 01:20 10.1 90 8.51 8.5 9 11 1031.5 0.2 19.6 27.6 42.2 110.5 103.5 355.7
08/05 01:10 10.2 89 8.47 8.5 11 13 1031.5 0.2 19.5 27.5 42.0 109.9 102.8 353.3
08/05 01:00 10.3 88 8.43 8.4 11 19 1031.4 0.2 19.4 27.4 41.7 109.3 102.1 350.9
08/05 00:50 10.5 87 8.44 8.4 9 15 1031.5 0.2 19.4 27.3 41.7 109.1 102.0 350.5
08/05 00:40 10.6 86 8.4 8.4 11 15 1031.5 0.2 19.3 27.2 41.4 108.5 101.3 348.1
08/05 00:30 10.8 84 8.3 8.2 11 24 1031.3 0.2 19.1 27.0 40.9 107.1 99.7 342.3
08/05 00:20 11 83 8.31 8.2 15 17 1031.5 0.2 19.1 26.9 40.9 107.0 99.6 342.0
08/05 00:10 11 82 8.21 8 13 19 1031.6 0.2 18.9 26.8 40.4 105.9 98.2 337.2
08/05 00:00 11.1 81 8.16 8 11 20 1031.5 0.2 18.8 26.7 40.2 105.2 97.4 334.4
07/05 23:50 11.3 80 8.16 8 13 19 1031.6 0.2 18.8 26.6 40.1 104.9 97.1 333.5
07/05 23:40 11.4 79 8.11 7.9 11 13 1031.6 0.2 18.6 26.5 39.8 104.2 96.3 330.7
07/05 23:30 11.3 79 8.06 7.8 11 20 1031.5 0.2 18.5 26.4 39.7 103.8 95.8 328.8
07/05 23:20 11.4 78 8.01 7.7 15 20 1031.7 0.2 18.4 26.3 39.4 103.1 95.0 326.0
07/05 23:10 11.6 77 8 7.7 13 15 1031.7 0.2 18.4 26.3 39.3 102.8 94.6 324.7
07/05 23:00 11.7 77 8.05 7.8 13 20 1031.5 0.2 18.5 26.3 39.4 103.2 95.1 326.6
07/05 22:50 11.7 78 8.16 8 15 20 1031.7 0.2 18.7 26.5 39.9 104.4 96.7 331.9
07/05 22:40 11.8 78 8.21 8.1 13 15 1031.8 0.2 18.8 26.5 40.1 104.8 97.2 333.8
07/05 22:30 11.9 78 8.26 8.2 13 20 1031.6 0.2 18.9 26.6 40.2 105.2 97.7 335.7
07/05 22:20 11.9 79 8.37 8.4 15 20 1031.7 0.2 19.2 26.8 40.7 106.4 99.2 341.0
07/05 22:10 12.1 78 8.37 8.4 11 15 1031.7 0.2 19.2 26.7 40.6 106.2 99.0 340.1
07/05 22:00 12.3 77 8.36 8.4 13 20 1031.6 0.2 19.1 26.6 40.4 105.8 98.6 338.8
07/05 21:50 12.5 78 8.58 8.8 13 24 1031.7 0.2 19.6 26.9 41.2 107.9 101.3 348.4
07/05 21:40 12.5 79 8.69 9 11 15 1031.7 0.2 19.8 27.1 41.7 109.2 102.8 353.6
07/05 21:30 12.8 79 8.85 9.3 11 19 1031.6 0.2 20.2 27.3 42.2 110.5 104.6 359.9
07/05 21:20 13.1 79 9.02 9.5 15 20 1031.6 0.2 20.5 27.5 42.7 112.0 106.5 366.6
07/05 21:10 13.2 79 9.07 9.6 15 24 1031.5 0.2 20.6 27.5 42.9 112.4 107.1 368.5
07/05 21:00 13.2 79 9.07 9.6 15 26 1031.4 0.2 20.6 27.5 42.9 112.4 107.1 368.5
07/05 20:50 13.1 80 9.13 9.7 17 22 1031.5 0.2 20.7 27.7 43.2 113.2 108.0 371.9
07/05 20:40 13.3 79 9.13 9.7 15 19 1031.4 0.2 20.7 27.6 43.1 112.9 107.7 370.9
07/05 20:30 13.3 78 9.01 9.5 13 22 1031.3 0.2 20.5 27.4 42.6 111.5 106.1 365.1
07/05 20:20 13.6 77 9.06 9.6 13 19 1031.4 0.2 20.6 27.4 42.6 111.7 106.4 366.1
07/05 20:10 13.9 75 8.99 9.5 15 19 1031.2 0.2 20.4 27.2 42.1 110.5 105.0 361.4
07/05 20:00 14.1 74 8.98 9.5 17 28 1031 0.2 20.4 27.1 42.0 110.0 104.6 359.9
07/05 19:50 14.4 72 8.9 9.4 22 26 1031 0.2 20.2 26.9 41.5 108.8 103.1 354.8
07/05 19:40 14.5 70 8.71 9.1 15 22 1031.1 0.2 19.8 26.5 40.7 106.6 100.4 345.5
07/05 19:30 14.5 69 8.58 8.9 13 22 1031 0.2 19.5 26.3 40.2 105.2 98.7 339.4
07/05 19:20 14.8 66 8.36 8.5 13 17 1031 0.2 19.0 25.9 39.1 102.4 95.4 328.0
07/05 19:10 14.8 65 8.23 8.3 17 24 1031 0.2 18.7 25.7 38.6 101.0 93.7 322.1
07/05 19:00 15 63 8.08 8 15 22 1030.9 0.2 18.4 25.4 37.9 99.2 91.5 314.5
07/05 18:50 15.1 63 8.13 8.1 17 20 1031 0.2 18.5 25.4 38.1 99.6 92.1 316.3
07/05 18:40 15.3 62 8.1 8.1 13 17 1030.9 0.2 18.4 25.3 37.9 99.0 91.5 314.2
07/05 18:30 15.3 62 8.1 8.1 13 19 1030.7 0.2 18.4 25.3 37.9 99.0 91.4 314.1
07/05 18:20 15.3 62 8.1 8.1 13 17 1030.8 0.2 18.4 25.3 37.9 99.0 91.4 314.1
07/05 18:10 15.4 62 8.15 8.2 17 19 1030.8 0.2 18.5 25.4 38.0 99.4 92.0 316.0
07/05 18:00 15.3 63 8.23 8.3 13 19 1030.7 0.2 18.7 25.5 38.4 100.4 93.1 320.0
07/05 17:50 15.6 62 8.25 8.4 13 17 1030.8 0.2 18.7 25.5 38.3 100.2 93.0 319.7
07/05 17:40 15.7 62 8.3 8.4 13 15 1030.7 0.2 18.8 25.5 38.4 100.6 93.5 321.5
07/05 17:30 15.9 61 8.26 8.4 13 17 1030.5 0.2 18.7 25.4 38.2 99.9 92.8 318.9
07/05 17:20 16.2 60 8.27 8.4 13 15 1030.5 0.2 18.8 25.3 38.1 99.6 92.5 318.1
07/05 17:10 16.6 59 8.33 8.6 13 17 1030.6 0.2 18.9 25.3 38.1 99.8 92.9 319.2
07/05 17:00 16.9 57 8.2 8.3 13 19 1030.5 0.2 18.6 25.0 37.5 98.1 90.8 312.2

Last Refresh: 08-May-2026 11:05:30

Bureau of Meteorology